AirNav   Pilot Hours Calculator
 
 716 users online  

T00 Chambers County Airport
Anahuac, Texas, USA

GOING TO ANAHUAC?


FAA INFORMATION EFFECTIVE 17 JUNE 2021

Location

FAA Identifier: T00
Lat/Long: 29-46-11.3332N 094-39-48.5535W
29-46.188887N 094-39.809225W
29.7698148,-94.6634871
(estimated)
Elevation: 21.2 ft. / 6.5 m (surveyed)
Variation: 05E (1995)
From city: 1 mile E of ANAHUAC, TX
Time zone: UTC -5 (UTC -6 during Standard Time)
Zip code: 77514

Airport Operations

Airport use: Open to the public
Activation date: 10/1978
Control tower: no
ARTCC: HOUSTON CENTER
FSS: MONTGOMERY COUNTY FLIGHT SERVICE STATION
NOTAMs facility: CXO (NOTAM-D service available)
Attendance: MON-FRI 0800-1700
Wind indicator: lighted
Segmented circle: yes
Lights: DUSK-DAWN. MIRL RWY 12/30 PRESET LOW INTST; TO INCR INTST ACTVT - CTAF.
Beacon: white-green (lighted land airport)
Operates sunset to sunrise.

Airport Communications

CTAF: 122.9
HOUSTON APPROACH: 134.45 [0600-0000]
HOUSTON DEPARTURE: 134.45 [0600-0000]
BLTWY RNAV DP: 134.45
BLUEBELL STAR: 124.225
BORRN RNAV DP: 134.45
CESAN STAR: 121.3
DREMR DP: 134.45
HOODO RNAV DP: 134.45
HUDZY STAR: 120.05
INDIE RNAV DP: 134.45
KARRR RNAV DP: 134.45
LURIC DP: 134.45
MMALT RNAV DP: 134.45
OHIIO STAR: 120.05
STRYA DP: 134.45
STYCK DP: 134.45
TKNIQ STAR: 119.625
WAPPL STAR: 120.05
WATFO DP: 134.45
WYLSN RNAV DP: 134.45

Nearby radio navigation aids

VOR radial/distance  VOR name  Freq  Var
MHFr011/14.1TRINITY VOR/DME113.6007E
DASr177/25.2DAISETTA VORTAC116.9005E
VUHr014/31.9SCHOLES VOR/DME113.0006E
SBIr272/33.0SABINE PASS VOR/DME115.4007E
BPTr246/35.3BEAUMONT VOR/DME114.5007E
IAHr103/37.2HUMBLE VORTAC116.6005E

 
NDB name  Hdg/Dist  Freq  Var  ID
GOODHUE226/29.636807EGDE --. -.. .

Airport Services

Fuel available: 100LL JET-A
Parking: tiedowns
Bottled oxygen: NONE
Bulk oxygen: NONE

Runway Information

Runway 12/30

Dimensions: 3005 x 60 ft. / 916 x 18 m
Surface: asphalt, in poor condition
EXTSV CRACKING WITH VEGETATION GROWING THRU.
Weight bearing capacity: 
Single wheel: 13.0
Runway edge lights: medium intensity
RUNWAY 12  RUNWAY 30
Latitude: 29-46.363987N29-46.053815N
Longitude: 094-39.966058W094-39.522763W
Elevation: 20.4 ft.20.4 ft.
Traffic pattern: leftright
Runway heading: 124 magnetic, 129 true304 magnetic, 309 true
Markings: nonprecision, in good conditionnonprecision, in good condition
Visual slope indicator: 2-light PAPI on left (4.00 degrees glide path)
Touchdown point: yes, no lightsyes, no lights
Obstructions: 45 ft. pole, 882 ft. from runway, 160 ft. left of centerline, 15:1 slope to clear15 ft. road, 530 ft. from runway, 280 ft. left of centerline, 22:1 slope to clear

Runway 17/35

Dimensions: 1900 x 300 ft. / 579 x 91 m
Surface: turf, in good condition
RUNWAY 17  RUNWAY 35
Latitude: 29-46.313965N29-46.000500N
Longitude: 094-39.911733W094-39.911733W
Elevation: 20.0 ft.20.0 ft.
Traffic pattern: leftright
Runway heading: 175 magnetic, 180 true355 magnetic, 000 true
Markings: none, in good conditionnone, in good condition
Touchdown point: yes, no lightsyes, no lights
Obstructions: 60 ft. trees, 890 ft. from runway, 90 ft. left of centerline, 14:1 slope to clear17 ft. road, 230 ft. from runway, 13:1 slope to clear

Airport Ownership and Management from official FAA records

Ownership: Publicly-owned
Owner: CHAMBERS COUNTY
PO BOX 938
ANAHUAC, TX 77514
Phone 409-267-2400
Manager: KELLY TRAHAN
PO BOX 938
ANAHUAC, TX 77514
Phone 409-267-2719

Airport Operational Statistics

Aircraft based on the field: 9
Single engine airplanes: 8
Multi engine airplanes: 1
    
Aircraft operations: avg 46/week *
67% local general aviation
33% transient general aviation
* for 12-month period ending 23 April 2020

Additional Remarks

RWY 17/35 SOFT WHEN WET.
RWY 17, PAPI RWY 12 IN RWY 17 APCH, DO NOT LAND BFR XNG RWY 12.
FOR CD CTC HOUSTON APCH AT 281-443-5844 TO CNL IFR CALL 281-443-5888.

Instrument Procedures

NOTE: All procedures below are presented as PDF files. If you need a reader for these files, you should download the free Adobe Reader.

NOT FOR NAVIGATION. Please procure official charts for flight.
FAA instrument procedures published for use from 17 June 2021 at 0901Z to 15 July 2021 at 0900Z.

 
STARs - Standard Terminal Arrivals
BLUBELL FOUR **CHANGED**   download (316KB)
CESAN FOUR (RNAV)   2 pages: [1] [2] (405KB)
HUDZY FOUR **CHANGED**   2 pages: [1] [2] (344KB)
OHIIO FOUR **CHANGED**   download (305KB)
TKNIQ TWO (RNAV) **CHANGED**   2 pages: [1] [2] (330KB)
TSHRT ONE ARRIVAL   2 pages: [1] [2] (377KB)
WAPPL FIVE (RNAV)   2 pages: [1] [2] (421KB)
WAPPL FIVE (RNAV), CONT.2 **CHANGED**   download (285KB)
 
IAPs - Instrument Approach Procedures
RNAV (GPS) RWY 12 **CHANGED**   download (198KB)
 
Departure Procedures
BLTWY SIX (RNAV)   download (153KB)
BORRN FOUR (RNAV) **CHANGED**   2 pages: [1] [2] (299KB)
HOODO SIX (RNAV)   download (203KB)
INDIE SEVEN (RNAV)   download (178KB)
KARRR SIX (RNAV)   2 pages: [1] [2] (254KB)
LURIC SEVEN (RNAV)   download (197KB)
MMALT FIVE (RNAV) **CHANGED**   download (213KB)
PALACIOS ONE   2 pages: [1] [2] (307KB)
STRYA SEVEN (RNAV)   download (185KB)
STYCK SEVEN (RNAV)   download (172KB)
WATFO FIVE (RNAV)   download (159KB)
WYLSN SEVEN (RNAV)   download (161KB)
NOTE: Special Take-Off Minimums/Departure Procedures apply   download (70KB)

Other nearby airports with instrument procedures:

54T - RWJ Airpark (10 nm W)
KHPY - Baytown Airport (15 nm W)
T78 - Liberty Municipal Airport (19 nm N)
T41 - La Porte Municipal Airport (22 nm W)
KEFD - Ellington Airport (28 nm W)
 
Loc | Ops | Rwys | IFR | FBO | Links
Com | Nav | Svcs | Stats | Notes
Area around T00 (Chambers County Airport)
 
Road maps at: MapQuest Bing Google
 
Aerial photo
WARNING: Photo may not be current or correct
Aerial photo of T00 (Chambers County Airport)
Photo taken 04-Mar-2007
on final for runway 30

Do you have a better or more recent aerial photo of Chambers County Airport that you would like to share? If so, please send us your photo.

 
Sectional chart

 
Airport distance calculator
Flying to Chambers County Airport? Find the distance to fly.

From to T00

Sunrise and sunset
Times for 19-Jun-2021
 Local
(UTC-5)
 Zulu
(UTC)
Morning civil twilight05:5210:52
Sunrise06:1911:19
Sunset20:2101:21
Evening civil twilight20:4801:48

Current date and time
Zulu (UTC)  20-Jun-2021 04:04:34
Local (UTC-5)  19-Jun-2021 23:04:34
 
METAR
KT41 
22nm W 
200355Z AUTO 19006KT 10SM CLR 28/25 A2989 RMK AO2 T02820252
KEFD 
28nm W 
200250Z 16009KT 10SM FEW047 FEW055 28/24 A2987
KBMT 
29nm NE 
200335Z AUTO 18004KT 10SM CLR 27/25 A2988 RMK AO2 T02700250
KGLS 
32nm S 
200352Z AUTO 17009KT 10SM CLR 29/24 A2989 RMK AO2 SLP120 T02940244
KHOU 
33nm W 
200353Z 18006KT 10SM FEW050 FEW250 29/24 A2988 RMK AO2 SLP121 T02890239
KLVJ 
34nm SW 
200353Z AUTO 19004KT 10SM CLR 28/24 A2989 RMK AO2 SLP121 T02830244
KBPT 
35nm E 
200353Z AUTO 17006KT 10SM CLR 26/25 A2988 RMK AO2 SLP117 T02610250
KIAH 
39nm W 
200353Z 17005KT 10SM FEW250 28/24 A2988 RMK AO2 SLP115 T02830239
K6R3 
39nm NW 
200355Z AUTO 19004KT 10SM CLR 26/24 A2989 RMK AO2 T02620241
TAF
KEFD 
28nm W 
192000Z 1920/2102 12008KT 9999 SCT065 QNH2978INS BECMG 2010/2011 VRB06KT 8000 BR SCT009 BKN025 QNH2982INS BECMG 2015/2016 VRB06KT 9999 NSW FEW030 QNH2984INS BECMG 2018/2019 19010G15KT 9000 -SHRA SCT040 BKN080 QNH2980INS TEMPO 2018/2021 VRB15G20KT 9000 -TSRA BKN055CB OVC080 BECMG 2021/2022 19012G18KT 9999 NSW FEW055 510103 QNH2977INS TX34/1922Z TN24/2011Z
KGLS 
32nm S 
191723Z 1918/2018 VRB03KT P6SM FEW035 FM192000 18008KT P6SM VCTS SCT030CB SCT250 FM200100 18008KT P6SM FEW025 SCT250 FM201400 20010KT P6SM VCTS FEW025CB SCT250
KHOU 
33nm W 
192109Z 1921/2018 16003KT P6SM VCTS SCT060CB SCT250 FM192330 15008KT P6SM VCSH FEW060 SCT250 FM200100 VRB04KT P6SM FEW040 SCT250 FM201500 19008KT P6SM VCTS FEW025CB SCT250
KBPT 
35nm E 
191838Z 1919/2018 VRB04KT P6SM FEW040 FM200100 17007KT P6SM SKC FM200800 16004KT P6SM SCT025
NOTAMs
Click for the latest NOTAMs
NOTAMs are issued by the DoD/FAA and will open in a separate window not controlled by AirNav.

 

 
 

FBO, Fuel Providers, and Aircraft Ground Support

  
 Business Name 
 
 Contact 
 
 Services / Description 
 
Fuel Prices
 
Comments
  
Chambers County Anahuac Airport 409-267-2719
no information available

If you are affiliated with Chambers County Anahuac Airport and would like to show here your services, contact info, web link, logo, and more, click here
100LL Jet A
SS $4.00 $3.40 
 Updated 10-Jun-2021
 
   write
SS=Self service
Update Fuel Prices
 

Would you like to see your business listed on this page?

 If your business provides an interesting product or service to pilots, flight crews, aircraft, or users of the Chambers County Airport, you should consider listing it here.  To start the listing process, click on the button below
 
Add a business
 

Other Pages about Chambers County Airport

www.co.chambers.tx.us/...
 
Update a link
 
Copyright © AirNav, LLC. All rights reserved. Privacy Policy  Contact